Disclaimer

Please do not use the information listed here in-flight or in-navigation, as they are not provided to us by the airports but are provided by volunteers, so they might be outdated.

Search


Regions


Airport information page

No radio frequency information is available.

Airport informations:
Latitude: 31° 56' 51.00" N
Longitude: 004° 23' 54.00" W
Elevation: 3428 feet - 1045 meters
Operating hours: From sunrise to sunset (SR-SS)
Operating agency: Military-civil joint use airport
Timezone: UTC 0
Fuel: N/A

Runway information:
13/31 - 10499 x 148 feet< - >3200 x 45 meters

Recent METARs:
GMFK 160800Z 00000KT CAVOK 06/M01 Q1030 NOSIG
GMFK 160900Z 00000KT CAVOK 07/M00 Q1031 NOSIG
GMFK 160900Z 00000KT CAVOK 07/M00 Q1031 NOSIG

Airport on the map: